Time;durP1;ratioP1;P1;durP2;ratioP2;P2;SDS_P1;SDS_P2;PMS_P1;PMS_P2;Temp;Humidity;BMP_temperature;BMP_pressure;BME280_temperature;BME280_humidity;BME280_pressure;Samples;Min_cycle;Max_cycle;Signal;HPM_P1;HPM_P2
2021/04/26 00:02:18;;;;;;;4.83;1.82;;;7.10;78.00;;;;;;1913548;74;21674;-72
2021/04/26 00:04:45;;;;;;;4.45;1.75;;;7.00;78.10;;;;;;1914944;74;21678;-71
2021/04/26 00:07:13;;;;;;;4.83;1.72;;;7.00;79.50;;;;;;1915976;73;21079;-71
2021/04/26 00:09:41;;;;;;;7.12;2.08;;;7.00;79.80;;;;;;1918860;74;21553;-71
2021/04/26 00:12:08;;;;;;;4.45;2.10;;;7.10;79.80;;;;;;1916505;74;21130;-71
2021/04/26 00:14:36;;;;;;;4.45;1.87;;;7.00;80.90;;;;;;1916268;74;21090;-72
2021/04/26 00:17:04;;;;;;;4.53;2.08;;;6.90;80.60;;;;;;1913284;74;21067;-72
2021/04/26 00:19:31;;;;;;;7.35;2.15;;;6.90;81.00;;;;;;1913532;74;21139;-71
2021/04/26 00:21:59;;;;;;;8.08;1.82;;;6.70;81.20;;;;;;1916135;74;21609;-72
2021/04/26 00:24:26;;;;;;;4.17;2.00;;;6.80;81.70;;;;;;1916028;74;21094;-71
2021/04/26 00:26:54;;;;;;;8.43;2.30;;;6.80;82.40;;;;;;1918198;73;21090;-71
2021/04/26 00:29:21;;;;;;;7.12;2.27;;;6.70;82.50;;;;;;1916763;74;21088;-71
2021/04/26 00:31:49;;;;;;;4.78;2.12;;;6.80;82.60;;;;;;1910968;74;21114;-71
2021/04/26 00:34:16;;;;;;;7.62;1.90;;;6.80;82.40;;;;;;1914254;74;21673;-71
2021/04/26 00:36:44;;;;;;;5.37;2.33;;;6.80;83.40;;;;;;1915835;74;21083;-71
2021/04/26 00:39:11;;;;;;;5.08;2.25;;;6.80;83.10;;;;;;1919292;74;21100;-72
2021/04/26 00:41:39;;;;;;;7.45;2.15;;;6.80;84.50;;;;;;1913309;74;21177;-72
2021/04/26 00:44:06;;;;;;;5.87;2.08;;;6.60;84.40;;;;;;1914522;74;21063;-72
2021/04/26 00:46:34;;;;;;;6.60;2.12;;;6.60;84.60;;;;;;1915013;74;21106;-72
2021/04/26 00:49:01;;;;;;;5.35;2.15;;;6.60;85.50;;;;;;1917381;74;21119;-72
2021/04/26 00:51:29;;;;;;;8.48;2.25;;;6.60;85.80;;;;;;1918461;74;22177;-71
2021/04/26 00:53:56;;;;;;;6.25;2.10;;;6.60;85.80;;;;;;1915918;74;21477;-72
2021/04/26 00:56:24;;;;;;;6.47;1.82;;;6.50;86.30;;;;;;1918087;74;21147;-72
2021/04/26 00:58:51;;;;;;;4.12;1.90;;;6.50;86.40;;;;;;1916108;74;21083;-72
2021/04/26 01:01:19;;;;;;;4.47;1.82;;;6.50;86.70;;;;;;1920587;74;21047;-72
2021/04/26 01:03:46;;;;;;;6.00;2.00;;;6.50;87.80;;;;;;1917583;74;21204;-72
2021/04/26 01:06:14;;;;;;;4.83;2.25;;;6.50;87.80;;;;;;1919809;74;21180;-72
2021/04/26 01:08:42;;;;;;;3.35;2.20;;;6.40;87.50;;;;;;1917131;74;21098;-72
2021/04/26 01:11:11;;;;;;;4.83;1.70;;;6.30;88.30;;;;;;1915524;74;21106;-72
2021/04/26 01:13:44;;;;;;;4.30;1.90;;;6.30;89.00;;;;;;1915504;74;21196;-72
2021/04/26 01:16:26;;;;;;;11.33;2.62;;;6.30;89.30;;;;;;1918235;74;21199;-72
2021/04/26 01:19:02;;;;;;;4.33;2.12;;;6.20;89.60;;;;;;1914702;74;21106;-72
2021/04/26 01:21:49;;;;;;;4.08;1.75;;;6.10;89.90;;;;;;1914979;74;21098;-72
2021/04/26 01:24:34;;;;;;;5.60;2.02;;;6.10;90.40;;;;;;1916420;74;21649;-73
2021/04/26 01:27:20;;;;;;;7.35;2.00;;;6.10;90.90;;;;;;1914901;74;21156;-71
2021/04/26 01:30:05;;;;;;;3.98;1.92;;;6.10;91.10;;;;;;1915215;74;21090;-71
2021/04/26 01:32:51;;;;;;;4.08;1.92;;;6.10;91.10;;;;;;1918596;74;21616;-71
2021/04/26 01:35:21;;;;;;;8.75;1.92;;;6.10;91.20;;;;;;1915026;74;21091;-70
2021/04/26 01:37:57;;;;;;;4.15;1.90;;;6.10;91.40;;;;;;1921800;74;21589;-72
2021/04/26 01:40:26;;;;;;;5.03;1.80;;;6.10;91.40;;;;;;1917277;74;21095;-71
2021/04/26 01:42:56;;;;;;;5.30;1.98;;;6.10;91.50;;;;;;1919217;74;21126;-72
2021/04/26 01:45:25;;;;;;;5.40;1.75;;;6.10;91.80;;;;;;1919675;74;21150;-71
2021/04/26 01:47:56;;;;;;;4.12;2.00;;;6.10;91.80;;;;;;1913238;74;21212;-72
2021/04/26 01:50:24;;;;;;;7.40;1.92;;;6.10;91.80;;;;;;1917957;74;21098;-72
2021/04/26 01:52:52;;;;;;;5.90;1.87;;;6.10;92.10;;;;;;1916991;74;21149;-72
2021/04/26 01:55:22;;;;;;;7.10;1.90;;;6.10;92.30;;;;;;1915209;74;21079;-73
2021/04/26 01:57:50;;;;;;;3.75;1.75;;;6.10;92.30;;;;;;1916990;74;22129;-72
2021/04/26 02:00:20;;;;;;;4.30;1.80;;;6.10;92.50;;;;;;1915817;74;21152;-72
2021/04/26 02:02:48;;;;;;;3.40;1.65;;;6.00;93.00;;;;;;1913989;74;21075;-71
2021/04/26 02:05:16;;;;;;;4.08;1.67;;;6.00;93.40;;;;;;1917123;74;21113;-73
2021/04/26 02:07:46;;;;;;;4.42;1.67;;;6.00;93.60;;;;;;1919065;74;21118;-72
2021/04/26 02:10:16;;;;;;;4.92;2.00;;;5.90;93.40;;;;;;1916770;74;21510;-72
2021/04/26 02:12:45;;;;;;;5.10;1.90;;;5.80;93.70;;;;;;1912855;74;21475;-73
2021/04/26 02:15:15;;;;;;;4.15;1.90;;;5.90;94.30;;;;;;1919882;74;21060;-73
2021/04/26 02:17:43;;;;;;;7.78;2.45;;;5.90;94.10;;;;;;1920970;74;21518;-73
2021/04/26 02:20:13;;;;;;;5.58;2.42;;;5.80;94.00;;;;;;1915873;74;21031;-73
2021/04/26 02:22:41;;;;;;;9.45;2.35;;;5.90;94.20;;;;;;1914403;74;21102;-73
2021/04/26 02:25:11;;;;;;;5.33;2.20;;;6.00;94.60;;;;;;1913792;74;21141;-72
2021/04/26 02:27:38;;;;;;;3.70;1.80;;;6.00;94.60;;;;;;1918173;74;21056;-72
2021/04/26 02:30:07;;;;;;;3.42;1.60;;;6.00;94.60;;;;;;1912588;74;21141;-73
2021/04/26 02:32:43;;;;;;;5.00;2.30;;;6.10;94.50;;;;;;1920405;74;21127;-72
2021/04/26 02:35:13;;;;;;;8.38;2.00;;;6.10;94.70;;;;;;1914096;74;21108;-73
2021/04/26 02:37:47;;;;;;;6.50;1.92;;;6.10;94.90;;;;;;1919122;74;21240;-73
2021/04/26 02:40:16;;;;;;;5.15;2.05;;;6.00;95.30;;;;;;1915763;74;21118;-73
2021/04/26 02:42:47;;;;;;;4.97;2.12;;;6.00;95.40;;;;;;1913553;74;21142;-73
2021/04/26 02:45:17;;;;;;;5.30;1.75;;;6.00;95.60;;;;;;1918332;74;21102;-73
2021/04/26 02:47:45;;;;;;;8.13;2.10;;;6.00;95.60;;;;;;1918571;74;21540;-73
2021/04/26 02:50:19;;;;;;;6.95;2.33;;;6.00;95.70;;;;;;1913968;74;21176;-73
2021/04/26 02:52:48;;;;;;;5.65;1.98;;;6.00;95.90;;;;;;1914752;74;21122;-72
2021/04/26 02:55:16;;;;;;;6.83;2.45;;;6.00;96.00;;;;;;1918213;74;21132;-72
2021/04/26 02:57:44;;;;;;;5.35;2.15;;;5.90;96.00;;;;;;1917053;74;21694;-72
2021/04/26 03:00:14;;;;;;;9.48;2.37;;;5.70;96.10;;;;;;1915058;74;21083;-73
2021/04/26 03:02:44;;;;;;;6.62;2.65;;;5.60;96.70;;;;;;1915036;74;21075;-73
2021/04/26 03:05:12;;;;;;;4.22;2.47;;;5.70;96.60;;;;;;1915837;74;21090;-73
2021/04/26 03:07:41;;;;;;;5.53;2.42;;;5.70;97.00;;;;;;1915922;74;22671;-73
2021/04/26 03:10:12;;;;;;;6.67;2.20;;;5.70;97.10;;;;;;1914031;74;21092;-73
2021/04/26 03:12:42;;;;;;;7.58;2.55;;;5.80;97.20;;;;;;1913774;74;21107;-73
2021/04/26 03:15:13;;;;;;;7.33;2.40;;;5.70;97.20;;;;;;1916273;74;21098;-73
2021/04/26 03:17:42;;;;;;;7.20;2.35;;;5.80;97.50;;;;;;1913916;74;21102;-73
2021/04/26 03:20:15;;;;;;;5.62;2.40;;;5.80;97.40;;;;;;1917731;74;21114;-72
2021/04/26 03:22:45;;;;;;;6.05;2.50;;;5.80;97.50;;;;;;1917116;74;21091;-72
2021/04/26 03:25:13;;;;;;;7.20;2.60;;;5.90;97.50;;;;;;1913294;74;21083;-72
2021/04/26 03:27:45;;;;;;;6.50;2.50;;;5.90;97.70;;;;;;1921311;74;21559;-72
2021/04/26 03:30:15;;;;;;;4.95;2.40;;;6.00;98.00;;;;;;1914800;74;21072;-72
2021/04/26 03:32:44;;;;;;;4.47;2.20;;;6.00;98.00;;;;;;1916598;74;21135;-72
2021/04/26 03:35:17;;;;;;;8.58;2.33;;;6.00;98.40;;;;;;1917528;74;21091;-73
2021/04/26 03:37:53;;;;;;;4.85;2.15;;;6.00;98.00;;;;;;1918444;74;21490;-73
2021/04/26 03:40:23;;;;;;;6.55;2.47;;;6.00;98.00;;;;;;1912512;74;21063;-72
2021/04/26 03:42:59;;;;;;;4.62;2.30;;;6.00;98.30;;;;;;1918389;74;21044;-73
2021/04/26 03:45:28;;;;;;;8.23;2.37;;;5.90;98.30;;;;;;1913553;74;20996;-73
2021/04/26 03:47:56;;;;;;;7.67;2.70;;;6.00;98.40;;;;;;1917501;74;21039;-73
2021/04/26 03:50:26;;;;;;;7.45;3.55;;;5.90;98.70;;;;;;1914966;74;21023;-72
2021/04/26 03:52:54;;;;;;;6.78;3.95;;;5.80;98.80;;;;;;1916489;74;21071;-72
2021/04/26 03:55:23;;;;;;;6.15;3.67;;;5.80;98.80;;;;;;1923071;74;21016;-72
2021/04/26 03:57:51;;;;;;;11.12;4.45;;;5.80;99.30;;;;;;1915666;74;21521;-72
2021/04/26 04:00:20;;;;;;;10.60;4.45;;;5.80;99.40;;;;;;1913710;74;21367;-72
2021/04/26 04:02:48;;;;;;;8.88;4.75;;;5.80;99.40;;;;;;1914335;74;21184;-72
2021/04/26 04:05:17;;;;;;;8.10;4.65;;;5.80;99.50;;;;;;1916382;74;21082;-72
2021/04/26 04:07:44;;;;;;;9.05;4.95;;;5.80;99.40;;;;;;1916317;74;21090;-73
2021/04/26 04:10:14;;;;;;;9.05;4.70;;;5.80;99.50;;;;;;1915005;74;21675;-72
2021/04/26 04:12:42;;;;;;;11.55;4.95;;;5.70;99.90;;;;;;1916585;74;21134;-74
2021/04/26 04:15:10;;;;;;;7.37;4.28;;;5.80;99.90;;;;;;1916114;74;21123;-72
2021/04/26 04:17:39;;;;;;;8.83;4.62;;;5.80;99.90;;;;;;1917954;74;21099;-74
2021/04/26 04:20:09;;;;;;;9.45;3.92;;;5.80;99.90;;;;;;1917597;74;21144;-74
2021/04/26 04:22:37;;;;;;;11.97;4.15;;;5.80;99.90;;;;;;1918630;74;21159;-74
2021/04/26 04:25:06;;;;;;;10.25;4.30;;;5.80;99.90;;;;;;1914850;74;21106;-73
2021/04/26 04:27:34;;;;;;;7.90;3.70;;;5.80;99.90;;;;;;1917357;74;21107;-73
2021/04/26 04:30:02;;;;;;;8.55;3.20;;;5.80;99.90;;;;;;1912678;74;21541;-72
2021/04/26 04:32:29;;;;;;;7.85;4.05;;;5.80;99.90;;;;;;1920923;74;21538;-73
2021/04/26 04:34:57;;;;;;;9.23;3.65;;;5.80;99.90;;;;;;1916684;74;21012;-73
2021/04/26 04:37:24;;;;;;;11.05;3.52;;;5.80;99.90;;;;;;1916896;74;21942;-73
2021/04/26 04:39:52;;;;;;;6.67;3.15;;;5.70;99.90;;;;;;1920373;74;21592;-72
2021/04/26 04:42:19;;;;;;;7.50;4.30;;;5.50;99.90;;;;;;1915765;73;21071;-77
2021/04/26 04:44:47;;;;;;;9.88;3.95;;;5.50;99.90;;;;;;1877496;74;21089;-77
2021/04/26 04:47:14;;;;;;;8.73;4.03;;;5.60;99.90;;;;;;1883968;75;21195;-77
2021/04/26 04:49:42;;;;;;;7.80;3.80;;;5.60;99.90;;;;;;1884546;75;21622;-77
2021/04/26 04:52:09;;;;;;;12.55;4.10;;;5.60;99.90;;;;;;1880417;75;21081;-78
2021/04/26 04:54:37;;;;;;;10.65;4.28;;;5.60;99.90;;;;;;1880581;75;21174;-78
2021/04/26 04:57:04;;;;;;;13.28;4.12;;;5.60;99.90;;;;;;1876763;75;21089;-78
2021/04/26 04:59:32;;;;;;;8.88;4.50;;;5.70;99.90;;;;;;1881091;75;21073;-77
2021/04/26 05:01:59;;;;;;;9.38;4.17;;;5.70;99.90;;;;;;1880508;75;21553;-78
2021/04/26 05:04:27;;;;;;;7.17;4.42;;;5.70;99.90;;;;;;1881806;74;21164;-80
2021/04/26 05:06:55;;;;;;;6.35;4.03;;;5.60;99.90;;;;;;1875357;74;21199;-80
2021/04/26 05:09:22;;;;;;;12.00;4.15;;;5.70;99.90;;;;;;1880783;74;22234;-78
2021/04/26 05:11:50;;;;;;;10.13;4.42;;;5.70;99.90;;;;;;1884814;74;21022;-78
2021/04/26 05:14:17;;;;;;;9.10;4.25;;;5.70;99.90;;;;;;1876241;75;21211;-78
2021/04/26 05:16:45;;;;;;;7.33;3.67;;;5.80;99.90;;;;;;1885567;74;21101;-79
2021/04/26 05:19:13;;;;;;;9.70;3.65;;;5.90;99.90;;;;;;1877553;74;21046;-78
2021/04/26 05:21:42;;;;;;;10.82;3.90;;;5.90;99.90;;;;;;1878393;75;21117;-78
2021/04/26 05:24:11;;;;;;;10.05;3.83;;;6.00;99.90;;;;;;1877778;74;21125;-78
2021/04/26 05:26:38;;;;;;;7.72;3.37;;;6.10;99.90;;;;;;1887494;74;21571;-79
2021/04/26 05:29:06;;;;;;;14.00;3.70;;;6.20;99.90;;;;;;1879419;75;21680;-79
2021/04/26 05:31:33;;;;;;;15.25;4.45;;;6.30;99.90;;;;;;1888603;74;21109;-79
2021/04/26 05:34:01;;;;;;;15.68;4.55;;;6.40;99.90;;;;;;1877878;74;21121;-79
2021/04/26 05:36:28;;;;;;;13.30;4.25;;;6.40;99.90;;;;;;1877166;74;21078;-80
2021/04/26 05:38:56;;;;;;;13.15;4.30;;;6.50;99.90;;;;;;1882664;74;21567;-81
2021/04/26 05:41:24;;;;;;;16.27;4.00;;;6.60;99.90;;;;;;1879249;75;21132;-81
2021/04/26 05:43:52;;;;;;;15.70;5.25;;;6.60;99.90;;;;;;1872916;75;21194;-79
2021/04/26 05:46:19;;;;;;;18.12;5.15;;;6.70;99.70;;;;;;1880231;74;21262;-77
2021/04/26 05:48:47;;;;;;;17.48;5.00;;;6.80;99.90;;;;;;1882617;75;21105;-78
2021/04/26 05:51:14;;;;;;;13.20;4.80;;;6.80;99.90;;;;;;1878662;75;21665;-79
2021/04/26 05:53:42;;;;;;;18.45;4.22;;;7.00;99.00;;;;;;1880425;75;21187;-79
2021/04/26 05:56:09;;;;;;;10.50;3.20;;;7.00;98.60;;;;;;1881303;75;21110;-78
2021/04/26 05:58:37;;;;;;;7.47;2.90;;;7.10;98.30;;;;;;1881989;75;21094;-78
2021/04/26 06:01:05;;;;;;;11.00;3.85;;;7.10;98.00;;;;;;1879824;75;21262;-79
2021/04/26 06:03:32;;;;;;;9.58;3.00;;;7.20;97.90;;;;;;1877205;75;21667;-78
2021/04/26 06:06:00;;;;;;;6.47;2.62;;;7.30;97.30;;;;;;1878086;75;21123;-78
2021/04/26 06:08:27;;;;;;;8.68;3.08;;;7.40;97.10;;;;;;1882588;75;21085;-79
2021/04/26 06:10:55;;;;;;;7.55;2.98;;;7.40;97.10;;;;;;1877659;75;21105;-79
2021/04/26 06:13:23;;;;;;;10.08;3.22;;;7.50;97.20;;;;;;1886549;74;21070;-78
2021/04/26 06:15:50;;;;;;;15.15;3.40;;;7.60;96.80;;;;;;1883410;75;21038;-78
2021/04/26 06:18:24;;;;;;;13.75;3.67;;;7.60;96.70;;;;;;1878595;74;21126;-77
2021/04/26 06:20:53;;;;;;;10.08;3.77;;;7.70;96.40;;;;;;1877860;74;21081;-76
2021/04/26 06:23:21;;;;;;;13.35;4.72;;;7.70;96.80;;;;;;1878238;74;21058;-77
2021/04/26 06:25:49;;;;;;;12.90;3.98;;;7.80;97.10;;;;;;1881467;74;21104;-77
2021/04/26 06:28:17;;;;;;;7.67;2.98;;;7.90;97.50;;;;;;1883444;75;21070;-77
2021/04/26 06:30:46;;;;;;;6.53;3.10;;;8.00;97.60;;;;;;1878175;74;21131;-78
2021/04/26 06:33:17;;;;;;;6.60;3.02;;;8.10;97.40;;;;;;1874757;75;21144;-77
2021/04/26 06:35:50;;;;;;;7.25;2.70;;;8.20;97.10;;;;;;1880696;74;21169;-77
2021/04/26 06:38:19;;;;;;;8.05;2.83;;;8.20;96.40;;;;;;1884508;74;21113;-77
2021/04/26 06:40:47;;;;;;;7.10;2.60;;;8.10;96.70;;;;;;1883770;74;21101;-80
2021/04/26 06:43:16;;;;;;;7.72;2.85;;;8.10;96.70;;;;;;1881707;75;21140;-79
2021/04/26 06:45:45;;;;;;;7.70;3.02;;;8.20;96.10;;;;;;1882117;75;21066;-77
2021/04/26 06:48:17;;;;;;;11.75;2.75;;;8.40;95.60;;;;;;1881843;74;21082;-77
2021/04/26 06:50:46;;;;;;;7.50;2.95;;;8.40;94.80;;;;;;1879781;74;21113;-77
2021/04/26 06:53:16;;;;;;;7.15;2.80;;;8.50;94.80;;;;;;1882133;74;21121;-77
2021/04/26 06:55:43;;;;;;;7.75;2.55;;;8.60;95.10;;;;;;1883588;74;21756;-77
2021/04/26 06:58:11;;;;;;;8.05;2.47;;;8.80;94.70;;;;;;1885322;74;21046;-77
2021/04/26 07:00:38;;;;;;;5.55;2.20;;;8.90;94.60;;;;;;1886291;74;21134;-78
2021/04/26 07:03:06;;;;;;;10.38;2.20;;;8.90;95.00;;;;;;1884054;75;21129;-77
2021/04/26 07:05:34;;;;;;;7.22;2.20;;;8.80;93.20;;;;;;1882574;74;21128;-78
2021/04/26 07:08:01;;;;;;;7.55;2.55;;;8.90;93.20;;;;;;1883907;75;21127;-78
2021/04/26 07:10:29;;;;;;;9.65;2.50;;;9.10;92.80;;;;;;1883327;74;21137;-78
2021/04/26 07:12:56;;;;;;;6.22;2.30;;;9.10;91.90;;;;;;1885275;75;21128;-78
2021/04/26 07:15:24;;;;;;;7.75;2.40;;;9.20;91.80;;;;;;1886304;74;21077;-78
2021/04/26 07:17:51;;;;;;;12.75;3.90;;;9.20;92.60;;;;;;1884832;74;21075;-77
2021/04/26 07:20:19;;;;;;;6.12;2.45;;;9.20;92.60;;;;;;1880595;74;21105;-74
2021/04/26 07:22:47;;;;;;;5.67;2.20;;;9.40;92.10;;;;;;1888568;74;21602;-74
2021/04/26 07:25:15;;;;;;;7.30;2.40;;;9.60;91.90;;;;;;1881363;74;22155;-74
2021/04/26 07:27:42;;;;;;;6.28;1.90;;;9.70;91.20;;;;;;1882615;74;21171;-75
2021/04/26 07:30:12;;;;;;;5.37;1.70;;;9.80;90.60;;;;;;1878001;74;21069;-75
2021/04/26 07:32:41;;;;;;;4.97;1.92;;;9.90;90.70;;;;;;1875516;74;21067;-74
2021/04/26 07:35:11;;;;;;;4.85;1.98;;;10.00;90.50;;;;;;1883092;75;21108;-73
2021/04/26 07:37:39;;;;;;;5.03;1.45;;;10.00;89.60;;;;;;1878842;75;21096;-74
2021/04/26 07:40:08;;;;;;;4.58;1.65;;;10.00;86.50;;;;;;1880247;74;21018;-74
2021/04/26 07:42:36;;;;;;;6.25;1.32;;;10.00;85.50;;;;;;1879147;74;21082;-74
2021/04/26 07:45:05;;;;;;;5.10;1.47;;;10.10;86.00;;;;;;1881617;75;21119;-74
2021/04/26 07:47:33;;;;;;;3.95;1.40;;;10.20;84.80;;;;;;1881043;74;21078;-75
2021/04/26 07:50:01;;;;;;;6.10;1.60;;;10.30;85.10;;;;;;1883486;74;21037;-74
2021/04/26 07:52:28;;;;;;;5.17;1.35;;;10.30;82.70;;;;;;1885526;75;21136;-74
2021/04/26 07:54:56;;;;;;;2.58;1.40;;;10.30;83.20;;;;;;1881864;74;21158;-75
2021/04/26 07:57:25;;;;;;;5.08;1.32;;;10.40;82.70;;;;;;1882696;74;21082;-75
2021/04/26 07:59:52;;;;;;;4.30;1.40;;;10.40;82.20;;;;;;1879130;74;21661;-74
2021/04/26 08:02:20;;;;;;;7.45;1.77;;;10.50;80.50;;;;;;1886250;74;22253;-76
2021/04/26 08:04:47;;;;;;;5.28;1.30;;;10.70;82.50;;;;;;1882740;74;21653;-78
2021/04/26 08:07:15;;;;;;;6.15;1.30;;;10.70;83.30;;;;;;1884274;74;21186;-76
2021/04/26 08:09:42;;;;;;;4.78;1.85;;;10.70;82.40;;;;;;1884766;75;21152;-76
2021/04/26 08:12:10;;;;;;;7.60;2.00;;;10.80;81.30;;;;;;1883040;74;21034;-74
2021/04/26 08:14:37;;;;;;;5.00;1.70;;;10.80;78.10;;;;;;1883546;75;21210;-75
2021/04/26 08:17:05;;;;;;;3.90;1.45;;;10.90;78.80;;;;;;1882174;75;21050;-76
2021/04/26 08:19:32;;;;;;;6.05;2.00;;;11.00;81.10;;;;;;1880077;75;21081;-76
2021/04/26 08:22:00;;;;;;;6.55;2.17;;;11.10;77.30;;;;;;1884124;74;21089;-76
2021/04/26 08:24:28;;;;;;;6.80;1.80;;;11.20;78.50;;;;;;1883927;75;21621;-75
2021/04/26 08:26:56;;;;;;;5.62;2.02;;;11.20;78.90;;;;;;1885373;75;21179;-75
2021/04/26 08:29:24;;;;;;;6.37;1.77;;;11.40;78.60;;;;;;1881205;75;21104;-76
2021/04/26 08:31:52;;;;;;;5.53;1.72;;;11.40;74.90;;;;;;1878626;75;21164;-76
2021/04/26 08:34:19;;;;;;;8.38;2.02;;;11.30;76.00;;;;;;1882941;75;21193;-76
2021/04/26 08:36:47;;;;;;;3.75;1.80;;;11.30;76.50;;;;;;1877508;75;21177;-75
2021/04/26 08:39:16;;;;;;;10.35;2.02;;;11.40;79.60;;;;;;1883054;74;21069;-76
2021/04/26 08:41:46;;;;;;;4.53;1.67;;;11.60;79.00;;;;;;1879911;74;21125;-76
2021/04/26 08:44:15;;;;;;;5.00;1.70;;;11.80;75.30;;;;;;1881139;75;21211;-76
2021/04/26 08:46:45;;;;;;;5.10;1.52;;;12.00;75.70;;;;;;1880361;74;21031;-75
2021/04/26 08:49:13;;;;;;;7.67;1.55;;;12.20;74.00;;;;;;1876589;74;21070;-77
2021/04/26 08:51:41;;;;;;;4.95;1.50;;;12.20;76.40;;;;;;1876920;75;21057;-76
2021/04/26 08:54:09;;;;;;;4.25;1.37;;;12.20;74.30;;;;;;1880390;74;21129;-75
2021/04/26 08:56:36;;;;;;;8.23;2.20;;;12.40;72.80;;;;;;1882781;75;21230;-75
2021/04/26 08:59:04;;;;;;;5.58;2.00;;;12.40;73.00;;;;;;1879850;74;21539;-75
2021/04/26 09:01:32;;;;;;;4.10;1.50;;;12.80;72.40;;;;;;1881957;74;21222;-76
2021/04/26 09:04:11;;;;;;;4.08;1.42;;;13.00;70.50;;;;;;1882563;74;21207;-75
2021/04/26 09:07:03;;;;;;;3.33;1.70;;;13.30;69.60;;;;;;1881429;74;21151;-76
2021/04/26 09:09:41;;;;;;;5.87;1.82;;;13.50;68.60;;;;;;1882457;74;21129;-77
2021/04/26 09:12:24;;;;;;;9.20;1.60;;;13.50;66.30;;;;;;1880604;74;21097;-76
2021/04/26 09:14:55;;;;;;;6.47;3.62;;;13.70;64.50;;;;;;1884691;74;21578;-74
2021/04/26 09:17:48;;;;;;;6.40;1.87;;;13.40;62.70;;;;;;1882303;75;21099;-76
2021/04/26 09:20:20;;;;;;;3.77;1.40;;;13.40;61.10;;;;;;1881498;74;21199;-76
2021/04/26 09:23:01;;;;;;;3.65;1.55;;;13.70;63.50;;;;;;1879794;74;21188;-74
2021/04/26 09:25:31;;;;;;;5.40;2.52;;;13.80;61.00;;;;;;1879087;74;21144;-75
2021/04/26 09:28:01;;;;;;;10.23;1.45;;;13.60;64.20;;;;;;1881833;75;21093;-75
2021/04/26 09:30:49;;;;;;;5.37;1.60;;;13.80;65.70;;;;;;1879813;74;21098;-76
2021/04/26 09:33:37;;;;;;;4.00;1.90;;;13.90;64.30;;;;;;1880832;74;21226;-76
2021/04/26 09:36:13;;;;;;;5.00;1.47;;;13.80;60.50;;;;;;1874878;75;21179;-76
2021/04/26 09:38:39;;;;;;;5.12;1.85;;;13.80;60.30;;;;;;1880700;74;21562;-76
2021/04/26 09:41:27;;;;;;;7.35;1.92;;;13.60;58.80;;;;;;1876027;74;21291;-76
2021/04/26 09:44:09;;;;;;;3.12;1.55;;;13.60;59.60;;;;;;1887772;74;21626;-76
2021/04/26 09:46:51;;;;;;;3.98;1.50;;;13.30;60.70;;;;;;1877208;74;21093;-76
2021/04/26 09:49:27;;;;;;;7.28;1.77;;;13.30;61.00;;;;;;1884344;74;21105;-76
2021/04/26 09:51:59;;;;;;;2.80;1.70;;;12.80;61.60;;;;;;1883748;74;21141;-76
2021/04/26 09:54:35;;;;;;;7.70;1.50;;;13.00;62.60;;;;;;1883005;75;21102;-76
2021/04/26 09:57:02;;;;;;;4.50;1.52;;;13.40;66.00;;;;;;1885634;74;21137;-76
2021/04/26 09:59:30;;;;;;;5.97;1.77;;;13.60;63.50;;;;;;1878489;74;21118;-76
2021/04/26 10:01:58;;;;;;;5.40;1.27;;;13.60;61.20;;;;;;1880234;74;21536;-75
2021/04/26 10:04:26;;;;;;;5.00;1.70;;;14.00;59.90;;;;;;1886242;74;21204;-75
2021/04/26 10:06:53;;;;;;;9.55;1.55;;;14.20;61.10;;;;;;1887799;74;21607;-74
2021/04/26 10:09:21;;;;;;;2.62;1.42;;;14.50;62.20;;;;;;1879863;74;21713;-74
2021/04/26 10:11:49;;;;;;;7.17;1.80;;;14.80;61.90;;;;;;1880531;74;22128;-74
2021/04/26 10:14:20;;;;;;;5.08;1.75;;;15.00;60.00;;;;;;1884814;74;21121;-74
2021/04/26 10:17:08;;;;;;;5.25;2.00;;;15.30;58.10;;;;;;1881335;74;21117;-75
2021/04/26 10:19:39;;;;;;;6.33;2.00;;;15.20;54.20;;;;;;1879929;74;21041;-75
2021/04/26 10:22:07;;;;;;;3.77;1.80;;;15.00;55.90;;;;;;1882306;74;21031;-74
2021/04/26 10:24:34;;;;;;;5.70;1.92;;;14.90;53.60;;;;;;1873784;75;21034;-74
2021/04/26 10:27:08;;;;;;;6.28;1.95;;;14.70;55.10;;;;;;1878666;75;21171;-75
2021/04/26 10:29:36;;;;;;;3.42;1.75;;;15.00;53.80;;;;;;1879417;75;21190;-75
2021/04/26 10:32:11;;;;;;;2.67;1.40;;;15.00;56.50;;;;;;1883945;74;21164;-74
2021/04/26 10:34:45;;;;;;;3.67;1.27;;;15.20;56.40;;;;;;1881157;74;21083;-73
2021/04/26 10:37:21;;;;;;;4.40;1.82;;;15.40;55.40;;;;;;1874894;74;21097;-76
2021/04/26 10:40:01;;;;;;;3.20;1.67;;;15.30;56.40;;;;;;1885835;74;21101;-78
2021/04/26 10:42:37;;;;;;;3.25;1.45;;;15.20;56.20;;;;;;1879111;75;21242;-77
2021/04/26 10:45:07;;;;;;;4.80;1.50;;;15.10;55.30;;;;;;1883234;74;21081;-79
2021/04/26 10:47:37;;;;;;;3.27;1.70;;;15.00;55.30;;;;;;1880843;74;21184;-80
2021/04/26 10:50:17;;;;;;;6.10;1.90;;;14.90;55.20;;;;;;1886332;74;22120;-80
2021/04/26 10:52:57;;;;;;;5.47;3.12;;;14.90;55.80;;;;;;1888134;74;21230;-79
2021/04/26 10:55:24;;;;;;;6.72;1.90;;;14.80;53.30;;;;;;1877497;75;21222;-80
2021/04/26 10:58:03;;;;;;;4.55;1.80;;;14.50;53.60;;;;;;1883808;74;21047;-80
2021/04/26 11:00:30;;;;;;;6.30;2.10;;;14.60;55.50;;;;;;1877850;74;21515;-80
2021/04/26 11:03:09;;;;;;;3.72;1.85;;;14.90;56.10;;;;;;1882404;75;21618;-79
2021/04/26 11:05:45;;;;;;;6.03;2.05;;;15.30;54.60;;;;;;1880461;74;21054;-78
2021/04/26 11:08:39;;;;;;;6.17;1.60;;;15.80;52.80;;;;;;1884443;74;21049;-76
2021/04/26 11:11:14;;;;;;;6.95;2.02;;;16.00;55.30;;;;;;1881476;74;21183;-79
2021/04/26 11:13:46;;;;;;;5.33;1.77;;;16.80;56.30;;;;;;1886139;74;21133;-79
2021/04/26 11:16:22;;;;;;;5.30;1.90;;;17.70;53.60;;;;;;1879735;74;21159;-77
2021/04/26 11:19:02;;;;;;;6.37;1.90;;;17.80;50.90;;;;;;1876819;75;21109;-77
2021/04/26 11:21:48;;;;;;;8.30;1.90;;;17.80;55.40;;;;;;1878499;75;21191;-77
2021/04/26 11:24:30;;;;;;;6.50;1.87;;;18.10;51.90;;;;;;1877798;75;21153;-76
2021/04/26 11:27:10;;;;;;;5.08;1.60;;;18.90;50.30;;;;;;1884051;74;21147;-76
2021/04/26 11:29:52;;;;;;;5.47;1.65;;;19.70;47.80;;;;;;1873862;75;21218;-77
2021/04/26 11:32:19;;;;;;;6.47;1.90;;;20.00;48.20;;;;;;1883653;74;21153;-78
2021/04/26 11:35:00;;;;;;;4.22;1.80;;;20.00;45.50;;;;;;1882241;74;21180;-77
2021/04/26 11:37:27;;;;;;;4.20;1.62;;;19.30;45.90;;;;;;1874150;75;21627;-77
2021/04/26 11:39:55;;;;;;;6.22;2.00;;;18.80;47.20;;;;;;1875566;74;21231;-81
2021/04/26 11:42:34;;;;;;;3.35;1.47;;;18.30;47.90;;;;;;1880767;74;21088;-81
2021/04/26 11:44:59;;;;;;;6.12;1.40;;;17.20;49.20;;;;;;1879156;75;21113;-80
2021/04/26 11:47:27;;;;;;;5.70;1.90;;;16.50;50.60;;;;;;1883100;75;21540;-80
2021/04/26 11:50:00;;;;;;;6.08;1.70;;;16.10;50.20;;;;;;1884715;75;21179;-81
2021/04/26 11:52:30;;;;;;;4.78;1.70;;;16.70;51.00;;;;;;1882411;75;21216;-80
2021/04/26 11:55:07;;;;;;;8.38;1.85;;;18.00;51.20;;;;;;1887897;74;21247;-79
2021/04/26 11:57:49;;;;;;;8.35;1.90;;;19.10;50.30;;;;;;1885183;74;21113;-80
2021/04/26 12:00:18;;;;;;;;;;;20.60;47.90;;;;;;1884162;74;21030;-80
2021/04/26 12:02:50;;;;;;;5.87;1.60;;;21.30;44.60;;;;;;1885188;74;20178;-79
2021/04/26 12:05:23;;;;;;;4.70;1.50;;;21.70;42.90;;;;;;1886706;74;21105;-80
2021/04/26 12:07:52;;;;;;;3.17;1.47;;;21.60;45.60;;;;;;1878341;74;21050;-79
2021/04/26 12:10:22;;;;;;;4.42;1.67;;;21.70;44.80;;;;;;1881192;74;21105;-79
2021/04/26 12:12:52;;;;;;;4.70;1.60;;;22.20;42.10;;;;;;1881861;74;21182;-79
2021/04/26 12:15:22;;;;;;;5.40;1.62;;;22.10;43.40;;;;;;1883755;74;21882;-79
2021/04/26 12:17:51;;;;;;;6.47;1.70;;;21.60;42.30;;;;;;1882784;74;21015;-79
2021/04/26 12:20:25;;;;;;;7.00;1.72;;;20.00;44.10;;;;;;1879673;74;21566;-76
2021/04/26 12:22:55;;;;;;;3.47;1.50;;;19.60;42.80;;;;;;1877330;75;21262;-76
2021/04/26 12:25:23;;;;;;;4.05;1.70;;;19.10;44.20;;;;;;1881795;74;21138;-76
2021/04/26 12:28:05;;;;;;;5.28;1.30;;;18.90;44.50;;;;;;1879668;75;21088;-76
2021/04/26 12:30:42;;;;;;;3.17;1.37;;;18.90;45.70;;;;;;1882172;74;21106;-75
2021/04/26 12:33:31;;;;;;;4.95;1.40;;;18.10;46.60;;;;;;1879763;74;21117;-76
2021/04/26 12:36:01;;;;;;;5.40;1.52;;;17.90;47.50;;;;;;1879526;74;21175;-76
2021/04/26 12:38:36;;;;;;;6.00;1.82;;;18.20;46.80;;;;;;1885410;74;21125;-78
2021/04/26 12:41:06;;;;;;;5.80;1.70;;;18.20;45.90;;;;;;1884601;74;21081;-77
2021/04/26 12:43:37;;;;;;;6.67;1.60;;;18.40;47.60;;;;;;1882127;74;21250;-77
2021/04/26 12:46:06;;;;;;;5.40;1.77;;;19.00;45.40;;;;;;1880298;74;22102;-77
2021/04/26 12:48:35;;;;;;;3.70;1.17;;;19.10;45.60;;;;;;1880673;74;21179;-75
2021/04/26 12:51:04;;;;;;;3.50;1.45;;;20.00;46.20;;;;;;1883248;75;21365;-75
2021/04/26 12:53:38;;;;;;;1.98;1.17;;;20.20;43.90;;;;;;1877017;75;21124;-75
2021/04/26 12:56:16;;;;;;;6.58;1.92;;;19.20;44.00;;;;;;1876118;75;21139;-74
2021/04/26 12:58:47;;;;;;;4.28;1.37;;;18.40;45.20;;;;;;1879422;75;21152;-80
2021/04/26 13:01:18;;;;;;;4.40;1.35;;;18.20;46.50;;;;;;1879786;75;21125;-76
2021/04/26 13:03:56;;;;;;;4.92;1.30;;;17.90;46.50;;;;;;1880443;75;21131;-76
2021/04/26 13:06:33;;;;;;;2.92;1.30;;;18.10;45.90;;;;;;1879577;75;21086;-76
2021/04/26 13:09:06;;;;;;;3.87;1.20;;;17.90;45.90;;;;;;1877914;75;21186;-76
2021/04/26 13:11:36;;;;;;;6.33;1.57;;;17.70;46.80;;;;;;1874912;75;21074;-76